Time;durP1;ratioP1;P1;durP2;ratioP2;P2;SDS_P1;SDS_P2;PMS_P1;PMS_P2;Temp;Humidity;BMP_temperature;BMP_pressure;BME280_temperature;BME280_humidity;BME280_pressure;Samples;Min_cycle;Max_cycle;Signal;HPM_P1;HPM_P2
2023/02/03 00:09:16;;;;;;;2.30;2.00;;;;;;;-1.23;97.88;99946.80;443399;1250;141523;-63
2023/02/03 00:19:20;;;;;;;;;;;;;;;-1.27;97.70;99947.34;439745;1250;199410;-63
2023/02/03 00:29:26;;;;;;;2.40;1.90;;;;;;;-1.34;97.70;99958.23;434884;1251;129517;-64
2023/02/03 00:39:32;;;;;;;2.80;1.70;;;;;;;-1.43;98.06;99958.99;435576;1251;141652;-64
2023/02/03 00:49:38;;;;;;;2.10;1.30;;;;;;;-1.47;98.13;99951.47;441990;1249;144166;-63
2023/02/03 00:59:43;;;;;;;2.20;1.20;;;;;;;-1.50;98.10;99956.13;435506;1250;141295;-64
2023/02/03 01:09:49;;;;;;;1.60;1.10;;;;;;;-1.52;97.75;99954.78;440270;1250;141617;-64
2023/02/03 01:19:55;;;;;;;2.20;0.80;;;;;;;-1.60;96.57;99938.88;434780;1250;141999;-63
2023/02/03 01:30:01;;;;;;;2.10;1.30;;;;;;;-1.60;95.76;99927.38;434280;1251;143323;-64
2023/02/03 01:40:09;;;;;;;1.40;1.10;;;;;;;-1.61;95.90;99924.83;439225;1250;147482;-64
2023/02/03 01:50:18;;;;;;;2.50;1.10;;;;;;;-1.59;95.68;99926.00;437474;1251;145247;-64
2023/02/03 02:00:24;;;;;;;2.50;1.10;;;;;;;-1.63;95.44;99923.11;437757;1250;142820;-64
2023/02/03 02:10:32;;;;;;;2.80;1.40;;;;;;;-1.69;95.66;99915.43;438202;1250;198246;-64
2023/02/03 02:21:21;;;;;;;4.40;1.50;;;;;;;-1.78;95.36;99896.45;439513;1251;145963;-64
2023/02/03 02:31:52;;;;;;;2.50;1.20;;;;;;;-2.02;95.70;99866.63;438129;1252;207320;-66
2023/02/03 02:42:05;;;;;;;2.40;2.00;;;;;;;-2.16;95.82;99860.20;435551;1250;146502;-65
2023/02/03 02:52:14;;;;;;;3.00;1.40;;;;;;;-2.27;96.30;99861.48;435047;1249;148343;-64
2023/02/03 03:02:20;;;;;;;1.80;1.50;;;;;;;-2.43;96.59;99874.80;435591;1253;145928;-63
2023/02/03 03:12:30;;;;;;;3.00;1.70;;;;;;;-2.51;97.00;99867.13;436426;1250;145097;-64
2023/02/03 03:22:42;;;;;;;3.30;2.70;;;;;;;-2.51;97.31;99842.61;436882;1250;208199;-64
2023/02/03 03:32:48;;;;;;;5.90;4.20;;;;;;;-2.58;97.60;99822.61;435026;1251;142238;-64
2023/02/03 03:43:00;;;;;;;3.20;2.20;;;;;;;-2.68;97.70;99819.06;438384;1249;146429;-64
2023/02/03 03:53:07;;;;;;;4.70;3.30;;;;;;;-2.77;97.99;99815.34;440826;1250;147446;-64
2023/02/03 04:03:16;;;;;;;5.10;3.60;;;;;;;-2.88;98.46;99808.20;435099;1253;142719;-63
2023/02/03 04:13:22;;;;;;;7.50;4.20;;;;;;;-2.98;98.79;99814.94;436582;1253;143035;-64
2023/02/03 04:23:28;;;;;;;7.10;4.70;;;;;;;-3.04;98.93;99811.53;436188;1250;142862;-63
2023/02/03 04:33:34;;;;;;;7.60;4.40;;;;;;;-3.09;99.16;99799.41;434416;1251;146448;-64
2023/02/03 04:43:40;;;;;;;9.20;5.50;;;;;;;-3.12;99.57;99788.80;437134;1251;147404;-64
2023/02/03 04:53:44;;;;;;;;;;;;;;;-3.16;99.49;99778.02;436530;1253;143282;-64
2023/02/03 05:03:49;;;;;;;11.10;6.90;;;;;;;-3.19;99.86;99766.56;434838;1253;128683;-63
2023/02/03 05:13:56;;;;;;;10.50;6.70;;;;;;;-3.20;99.83;99758.02;435980;1251;143784;-63
2023/02/03 05:24:05;;;;;;;9.30;6.00;;;;;;;-3.20;99.92;99746.20;437922;1249;141936;-63
2023/02/03 05:34:11;;;;;;;9.10;6.10;;;;;;;-3.19;99.98;99717.41;432869;1253;195980;-65
2023/02/03 05:44:16;;;;;;;;;;;;;;;-3.18;100.00;99697.90;437731;1250;142017;-63
2023/02/03 05:54:22;;;;;;;14.10;9.80;;;;;;;-3.18;100.00;99685.05;434209;1251;129249;-64
2023/02/03 06:04:28;;;;;;;18.10;11.80;;;;;;;-3.19;100.00;99674.43;446016;1249;211782;-63
2023/02/03 06:14:34;;;;;;;10.00;7.60;;;;;;;-3.16;100.00;99671.70;441256;1250;143153;-64
2023/02/03 06:24:40;;;;;;;8.90;5.70;;;;;;;-3.06;100.00;99661.52;450170;1250;143117;-64
2023/02/03 06:34:45;;;;;;;9.90;6.50;;;;;;;-2.95;100.00;99644.98;450673;1250;142956;-64
2023/02/03 06:44:52;;;;;;;10.00;6.90;;;;;;;-2.83;100.00;99626.39;450703;1251;142384;-63
2023/02/03 06:54:58;;;;;;;17.00;7.90;;;;;;;-2.70;100.00;99608.11;449939;1250;143211;-64
2023/02/03 07:05:03;;;;;;;9.20;6.80;;;;;;;-2.56;100.00;99584.83;450610;1250;188868;-63
2023/02/03 07:15:11;;;;;;;8.60;6.70;;;;;;;-2.45;100.00;99568.95;450783;1250;144684;-64
2023/02/03 07:25:17;;;;;;;11.50;6.30;;;;;;;-2.30;100.00;99548.04;450028;1250;142595;-64
2023/02/03 07:35:21;;;;;;;;;;;;;;;-2.11;99.96;99528.42;450729;1250;145307;-63
2023/02/03 07:45:27;;;;;;;12.00;6.90;;;;;;;-1.86;99.93;99513.16;450371;1250;129657;-64
2023/02/03 07:55:33;;;;;;;10.10;7.10;;;;;;;-1.65;99.59;99491.90;447659;1250;151892;-64
2023/02/03 08:05:39;;;;;;;12.20;8.20;;;;;;;-1.52;99.21;99469.05;447727;1250;143241;-63
2023/02/03 08:15:45;;;;;;;7.90;6.00;;;;;;;-1.38;98.79;99440.31;448928;1250;142544;-64
2023/02/03 08:25:53;;;;;;;10.20;5.60;;;;;;;-1.20;98.67;99417.66;450844;1251;142206;-64
2023/02/03 08:35:59;;;;;;;8.20;5.80;;;;;;;-0.98;97.95;99395.26;450787;1251;142108;-64
2023/02/03 08:46:07;;;;;;;11.60;6.40;;;;;;;-0.84;97.37;99373.66;450117;1250;142130;-63
2023/02/03 08:56:14;;;;;;;11.80;6.60;;;;;;;-0.75;96.75;99352.16;450826;1253;141954;-64
2023/02/03 09:06:21;;;;;;;11.70;7.20;;;;;;;-0.55;96.56;99327.31;450853;1250;143786;-63
2023/02/03 09:16:30;;;;;;;6.70;4.50;;;;;;;-0.35;96.02;99317.58;450356;1251;207382;-64
2023/02/03 09:26:36;;;;;;;8.80;5.40;;;;;;;-0.26;95.23;99289.99;450885;1250;142107;-63
2023/02/03 09:36:42;;;;;;;9.30;5.30;;;;;;;-0.14;94.57;99267.86;446303;1251;143178;-64
2023/02/03 09:46:52;;;;;;;10.60;5.60;;;;;;;-0.11;94.35;99247.98;451024;1251;141836;-63
2023/02/03 09:56:59;;;;;;;9.10;5.00;;;;;;;0.29;94.33;99208.02;450991;1251;143243;-64
2023/02/03 10:07:13;;;;;;;10.40;5.10;;;;;;;0.50;93.70;99181.10;450264;1250;143197;-64
2023/02/03 10:17:30;;;;;;;10.70;6.60;;;;;;;0.36;93.65;99159.30;451066;1251;146217;-65
2023/02/03 10:27:37;;;;;;;10.30;6.50;;;;;;;0.10;94.40;99130.23;435756;1253;145880;-63
2023/02/03 10:37:49;;;;;;;7.40;5.30;;;;;;;-0.14;95.20;99087.73;451057;1251;144062;-64
2023/02/03 10:47:56;;;;;;;6.20;3.90;;;;;;;-0.32;96.01;99049.51;451069;1249;142297;-64
2023/02/03 10:58:15;;;;;;;5.50;3.60;;;;;;;-0.47;96.74;99003.48;450321;1251;187886;-64
2023/02/03 11:08:31;;;;;;;5.10;4.00;;;;;;;-0.52;97.51;98948.44;451118;1251;142179;-64
2023/02/03 11:18:46;;;;;;;7.70;4.70;;;;;;;-0.64;98.44;98909.73;449676;1251;142130;-65
2023/02/03 11:28:56;;;;;;;7.00;6.00;;;;;;;-0.78;99.05;98871.83;449731;1253;142614;-65
2023/02/03 11:39:25;;;;;;;10.30;6.60;;;;;;;-0.87;99.54;98838.73;438297;1250;145427;-65
2023/02/03 11:49:58;;;;;;;5.80;4.50;;;;;;;-0.81;99.98;98798.52;450693;1251;208497;-63
2023/02/03 12:00:18;;;;;;;8.00;4.90;;;;;;;-0.91;99.96;98764.28;451121;1249;142529;-64
2023/02/03 12:10:44;;;;;;;5.90;5.10;;;;;;;-1.04;100.00;98719.13;450368;1249;143485;-64
2023/02/03 12:21:03;;;;;;;10.30;6.00;;;;;;;-1.12;100.00;98682.26;451162;1251;142307;-65
2023/02/03 12:31:15;;;;;;;8.30;6.00;;;;;;;-1.17;100.00;98647.02;444947;1251;143305;-64
2023/02/03 12:41:25;;;;;;;7.20;5.50;;;;;;;-1.21;100.00;98607.67;451178;1250;142345;-65
2023/02/03 12:51:38;;;;;;;11.90;8.30;;;;;;;-1.29;100.00;98572.71;450370;1250;153363;-66
2023/02/03 13:01:50;;;;;;;10.50;8.00;;;;;;;-1.29;100.00;98537.51;451142;1250;142936;-66
2023/02/03 13:12:03;;;;;;;10.80;8.10;;;;;;;-1.33;100.00;98502.08;451134;1251;141678;-65
2023/02/03 13:22:13;;;;;;;18.30;11.50;;;;;;;-1.30;100.00;98470.23;450358;1249;142642;-65
2023/02/03 13:32:42;;;;;;;15.30;10.30;;;;;;;-1.23;100.00;98433.09;448396;1249;143599;-66
2023/02/03 13:42:55;;;;;;;9.60;7.90;;;;;;;-1.16;100.00;98396.77;434263;1251;142319;-66
2023/02/03 13:53:06;;;;;;;18.20;13.20;;;;;;;-1.08;100.00;98359.92;451150;1250;142912;-65
2023/02/03 14:03:19;;;;;;;12.50;8.80;;;;;;;-0.95;100.00;98333.85;451191;1250;142388;-64
2023/02/03 14:13:25;;;;;;;10.20;8.40;;;;;;;-0.86;100.00;98311.33;450394;1249;141297;-66
2023/02/03 14:23:50;;;;;;;11.10;9.20;;;;;;;-0.76;100.00;98302.88;446487;1250;142613;-66
2023/02/03 14:34:11;;;;;;;12.00;10.00;;;;;;;-0.70;100.00;98265.72;439644;1249;142446;-66
2023/02/03 14:44:30;;;;;;;14.30;11.50;;;;;;;-0.68;100.00;98260.98;451189;1249;143144;-65
2023/02/03 14:54:51;;;;;;;6.80;5.10;;;;;;;-0.58;100.00;98257.49;450494;1250;142475;-65
2023/02/03 15:05:28;;;;;;;8.80;7.50;;;;;;;-0.49;100.00;98253.01;451301;1249;143100;-65
2023/02/03 15:15:38;;;;;;;8.60;6.40;;;;;;;-0.40;100.00;98242.71;450420;1249;142173;-65
2023/02/03 15:25:44;;;;;;;9.90;7.80;;;;;;;-0.35;100.00;98235.42;451107;1249;142550;-66
2023/02/03 15:35:55;;;;;;;15.70;12.20;;;;;;;-0.31;100.00;98236.81;444773;1248;142210;-65
2023/02/03 15:46:11;;;;;;;13.70;9.30;;;;;;;-0.29;100.00;98228.83;450486;1249;143483;-66
2023/02/03 15:56:25;;;;;;;8.60;7.60;;;;;;;-0.24;100.00;98233.09;451226;1248;143517;-66
2023/02/03 16:06:37;;;;;;;8.10;7.20;;;;;;;-0.12;100.00;98236.90;448001;1250;187057;-65
2023/02/03 16:16:50;;;;;;;9.60;8.00;;;;;;;0.08;100.00;98242.27;450891;1249;143153;-64
2023/02/03 16:27:33;;;;;;;15.80;9.90;;;;;;;0.28;100.00;98245.54;447002;1250;144995;-64
2023/02/03 16:58:35;;;;;;;13.50;8.80;;;;;;;0.77;100.00;98275.60;447585;1249;208112;-64
2023/02/03 17:08:41;;;;;;;13.50;7.40;;;;;;;0.87;100.00;98277.77;450943;1249;141595;-64
2023/02/03 17:18:46;;;;;;;;;;;;;;;0.96;100.00;98274.23;450290;1250;143398;-64
2023/02/03 17:28:52;;;;;;;15.60;7.00;;;;;;;1.05;100.00;98286.22;437303;1252;129349;-65
2023/02/03 17:39:00;;;;;;;14.80;5.30;;;;;;;1.10;100.00;98306.86;434027;1251;144106;-66
2023/02/03 17:49:23;;;;;;;11.70;4.50;;;;;;;1.14;100.00;98320.13;450398;1250;141546;-65
2023/02/03 17:59:52;;;;;;;13.80;4.90;;;;;;;1.21;100.00;98343.59;451058;1250;142241;-64
2023/02/03 18:09:58;;;;;;;7.20;3.70;;;;;;;1.28;100.00;98358.98;439596;1250;145776;-65
2023/02/03 18:20:04;;;;;;;13.10;4.60;;;;;;;1.30;100.00;98365.42;446920;1249;142783;-64
2023/02/03 18:30:13;;;;;;;10.70;4.40;;;;;;;1.35;100.00;98377.12;450989;1249;143518;-64
2023/02/03 18:40:20;;;;;;;9.40;3.60;;;;;;;1.36;100.00;98391.22;444444;1249;142433;-65
2023/02/03 18:50:26;;;;;;;10.00;4.30;;;;;;;1.34;100.00;98396.63;449648;1250;144499;-65
2023/02/03 19:00:32;;;;;;;11.60;4.30;;;;;;;1.36;100.00;98402.75;450380;1249;141882;-65
2023/02/03 19:10:38;;;;;;;13.80;4.60;;;;;;;1.39;100.00;98411.23;450965;1250;143333;-65
2023/02/03 19:20:45;;;;;;;14.90;4.70;;;;;;;1.43;100.00;98418.52;449253;1250;142128;-65
2023/02/03 19:30:50;;;;;;;19.40;6.00;;;;;;;1.41;100.00;98419.44;450348;1249;145489;-65
2023/02/03 19:41:05;;;;;;;10.60;4.90;;;;;;;1.40;100.00;98420.54;450994;1250;141846;-65
2023/02/03 19:51:12;;;;;;;7.80;4.40;;;;;;;1.39;100.00;98429.69;450806;1249;144744;-65
2023/02/03 20:01:18;;;;;;;13.30;6.10;;;;;;;1.41;100.00;98427.36;445329;1248;141595;-65
2023/02/03 20:11:24;;;;;;;16.80;5.10;;;;;;;1.41;100.00;98429.64;450894;1248;143348;-64
2023/02/03 20:21:32;;;;;;;8.10;4.20;;;;;;;1.41;100.00;98434.63;435120;1250;143708;-65
2023/02/03 20:31:38;;;;;;;11.50;4.50;;;;;;;1.39;100.00;98441.79;446249;1250;142047;-65
2023/02/03 20:41:44;;;;;;;9.80;4.90;;;;;;;1.41;100.00;98448.23;450332;1249;142866;-65
2023/02/03 20:51:50;;;;;;;8.80;4.90;;;;;;;1.45;100.00;98452.20;450331;1250;146049;-64
2023/02/03 21:02:02;;;;;;;9.50;4.80;;;;;;;1.48;100.00;98456.35;451088;1250;142109;-66
2023/02/03 21:12:12;;;;;;;10.20;4.50;;;;;;;1.48;100.00;98464.65;451097;1250;142833;-66
2023/02/03 21:22:22;;;;;;;8.60;4.20;;;;;;;1.47;100.00;98477.09;447125;1249;142085;-65
2023/02/03 21:32:37;;;;;;;9.40;3.40;;;;;;;1.50;100.00;98472.52;450866;1249;141924;-65
2023/02/03 21:42:45;;;;;;;6.60;4.00;;;;;;;1.55;100.00;98467.81;450104;1249;143555;-66
2023/02/03 21:52:51;;;;;;;7.90;3.30;;;;;;;1.55;100.00;98470.73;448422;1249;142865;-65
2023/02/03 22:02:59;;;;;;;4.00;2.30;;;;;;;1.56;100.00;98472.42;451131;1249;143555;-66
2023/02/03 22:13:05;;;;;;;6.20;2.40;;;;;;;1.55;100.00;98484.19;438392;1250;142284;-64
2023/02/03 22:23:11;;;;;;;4.30;2.20;;;;;;;1.49;100.00;98473.92;450963;1249;141995;-64
2023/02/03 22:33:17;;;;;;;4.00;2.20;;;;;;;1.44;100.00;98470.17;449840;1250;141593;-65
2023/02/03 22:43:23;;;;;;;5.70;3.00;;;;;;;1.44;100.00;98469.48;445084;1250;143339;-66
2023/02/03 22:53:29;;;;;;;4.50;2.70;;;;;;;1.42;100.00;98477.70;443281;1250;153173;-65
2023/02/03 23:03:35;;;;;;;6.50;3.20;;;;;;;1.42;100.00;98473.56;443669;1250;141885;-66
2023/02/03 23:13:41;;;;;;;4.80;2.50;;;;;;;1.41;100.00;98464.44;450853;1250;145376;-64
2023/02/03 23:23:46;;;;;;;4.10;2.50;;;;;;;1.37;100.00;98461.17;450899;1250;183926;-66
2023/02/03 23:44:12;;;;;;;5.10;2.80;;;;;;;1.22;100.00;98474.94;450955;1250;185146;-64
2023/02/03 23:54:18;;;;;;;4.70;3.10;;;;;;;1.12;100.00;98493.64;447802;1250;143087;-64
